createdAt,value
2024-04-10T00:00:11.370Z,1017.4042538669356
2024-04-10T00:03:52.492Z,1017.4788057935336
2024-04-10T00:07:25.193Z,1017.5528428403746
2024-04-10T00:11:13.747Z,1017.5257088796067
2024-04-10T00:15:46.282Z,1017.4633386439824
2024-04-10T00:19:29.189Z,1017.485988394035
2024-04-10T00:22:53.727Z,1017.5204859771754
2024-04-10T00:26:21.848Z,1017.5768212761105
2024-04-10T00:29:56.179Z,1017.6233860562521
2024-04-10T00:34:18.311Z,1017.7030314700822
2024-04-10T00:38:03.296Z,1017.7282559725189
2024-04-10T00:41:32.380Z,1017.7022390496105
2024-04-10T00:45:00.128Z,1017.7084484143671
2024-04-10T00:48:29.642Z,1017.7489915552667
2024-04-10T00:51:58.543Z,1017.8063881102855
2024-04-10T00:55:22.248Z,1017.8587262269708
2024-04-10T00:58:45.999Z,1017.8780617257188
2024-04-10T01:02:12.638Z,1017.9306597459012
2024-04-10T01:05:48.466Z,1017.9877798673949
2024-04-10T01:09:14.897Z,1018.0751843223791
2024-04-10T01:12:54.032Z,1018.2507416270429
2024-04-10T01:16:24.358Z,1018.3399952097845
2024-04-10T01:19:49.668Z,1018.3718721565461
2024-04-10T01:23:16.396Z,1018.4050608381274
2024-04-10T01:26:44.059Z,1018.501605756899
2024-04-10T01:30:10.661Z,1018.5925160012778
2024-04-10T01:33:47.475Z,1018.7050735353449
2024-04-10T01:37:21.604Z,1018.8094323037516
2024-04-10T01:45:24.329Z,1018.8377398045542
2024-04-10T01:50:25.575Z,1018.8584845327575
2024-04-10T01:54:03.564Z,1018.8727782621756
2024-04-10T01:57:42.782Z,1018.9281576429255
2024-04-10T02:04:02.064Z,1019.0220800019032
2024-04-10T02:07:31.169Z,1019.1369272461395
2024-04-10T02:11:04.776Z,1019.191166804554
2024-04-10T02:14:48.554Z,1019.300445375732
2024-04-10T02:18:15.723Z,1019.3535122230326
2024-04-10T02:27:45.743Z,1019.4573740981226
2024-04-10T02:31:13.531Z,1019.5401301546055
2024-04-10T02:35:12.831Z,1019.5750986365648
2024-04-10T02:39:00.066Z,1019.6620475572992
2024-04-10T02:42:28.763Z,1019.7518320280262
2024-04-10T02:46:14.812Z,1019.8068767509213
2024-04-10T02:49:44.913Z,1019.7728018271049
2024-04-10T02:53:12.311Z,1019.7801120068087
2024-04-10T02:56:45.557Z,1019.7446755678654
2024-04-10T03:00:44.660Z,1019.7752816850748
2024-04-10T03:04:15.798Z,1019.8518972371897
2024-04-10T03:07:45.450Z,1019.9557290986735
2024-04-10T03:11:12.150Z,1020.0718114132393
2024-04-10T03:14:41.854Z,1020.184791407901
2024-04-10T03:18:09.199Z,1020.3105261130536
2024-04-10T03:21:33.539Z,1020.2973396208895
2024-04-10T03:25:01.065Z,1020.3360817550908
2024-04-10T03:28:31.982Z,1020.3666492556815
2024-04-10T03:31:58.094Z,1020.4129600017715
2024-04-10T03:35:24.372Z,1020.4875692724545
2024-04-10T03:39:50.452Z,1020.5932190452918
2024-04-10T03:43:28.213Z,1020.6434756812534
2024-04-10T03:46:51.762Z,1020.6246569399212
2024-04-10T03:50:19.541Z,1020.6055440504695
2024-04-10T03:53:45.455Z,1020.5759900331075
2024-04-10T03:57:14.171Z,1020.6831855966232
2024-04-10T04:05:56.034Z,1020.8932550955565
2024-04-10T04:09:25.231Z,1021.0113903904899
2024-04-10T04:13:01.873Z,1021.1477757163558
2024-04-10T04:16:32.031Z,1021.2732497017804
2024-04-10T04:19:57.633Z,1021.4445515697472
2024-04-10T04:25:07.962Z,1021.6140618101407
2024-04-10T04:28:43.827Z,1021.7079582692436
2024-04-10T04:32:09.518Z,1021.7815313859635
2024-04-10T04:38:08.688Z,1021.9275930428029
2024-04-10T04:41:40.440Z,1022.0363261233031
2024-04-10T04:45:12.329Z,1022.14539270296
2024-04-10T04:48:39.843Z,1022.2131098123947
2024-04-10T04:52:07.338Z,1022.3819109318192
2024-04-10T04:55:49.826Z,1022.4904760489475
2024-04-10T04:59:21.102Z,1022.5739043142563
2024-04-10T05:02:53.445Z,1022.6496935628447
2024-04-10T05:06:36.530Z,1022.7592511361328
2024-04-10T05:10:06.609Z,1022.853927943007
2024-04-10T05:13:38.484Z,1022.9550140708101
2024-04-10T05:17:04.357Z,1023.0808738484983
2024-04-10T05:20:32.851Z,1023.1688340701713
2024-04-10T05:24:04.388Z,1023.2448539749339
2024-04-10T05:27:34.224Z,1023.2633910329594
2024-04-10T05:30:59.298Z,1023.2675156426658
2024-04-10T05:34:40.442Z,1023.2561355533444
2024-04-10T05:38:04.090Z,1023.2856802162562
2024-04-10T05:46:05.544Z,1023.5151013336182
2024-04-10T05:49:31.722Z,1023.612981292936
2024-04-10T05:52:53.467Z,1023.7243414944115
2024-04-10T05:56:16.887Z,1023.8051634832015
2024-04-10T05:59:55.169Z,1023.9178854239216
2024-04-10T06:03:20.857Z,1024.0113069746765
2024-04-10T06:06:52.409Z,1024.0919741564212
2024-04-10T06:18:58.825Z,1024.2432228541352
2024-04-10T06:22:23.920Z,1024.315469892413
2024-04-10T06:25:54.456Z,1024.3876566326628
2024-04-10T06:29:18.168Z,1024.4548786064238
2024-04-10T06:32:43.303Z,1024.471429057133
2024-04-10T06:36:05.854Z,1024.533292726743
2024-04-10T06:39:34.138Z,1024.6084960977912
2024-04-10T06:42:58.122Z,1024.6614449921954
2024-04-10T06:46:23.464Z,1024.675555098468
2024-04-10T06:49:51.474Z,1024.7153716017751
2024-04-10T06:53:32.546Z,1024.7794824902787
2024-04-10T06:57:07.892Z,1024.824303677362
2024-04-10T07:03:18.503Z,1024.9025864728783
2024-04-10T07:06:54.583Z,1025.0154077837049
2024-04-10T07:10:53.472Z,1025.0909668052254
2024-04-10T07:14:33.137Z,1025.1590001974312
2024-04-10T07:22:05.838Z,1025.3738943323367
2024-04-10T07:25:55.650Z,1025.4421882166966
2024-04-10T07:29:26.206Z,1025.5197917218113
2024-04-10T07:32:57.048Z,1025.608972330449
2024-04-10T07:36:27.994Z,1025.6726836361374
2024-04-10T07:39:52.948Z,1025.7110674710573
2024-04-10T07:43:21.882Z,1025.7814291920824
2024-04-10T07:49:23.230Z,1025.8741268638855
2024-04-10T07:52:49.833Z,1025.9051057455372
2024-04-10T07:56:15.841Z,1025.9476539105547
2024-04-10T07:59:42.453Z,1025.9663256017418
2024-04-10T08:03:12.132Z,1025.9957218477132
2024-04-10T08:06:45.136Z,1026.0658721090122
2024-04-10T08:13:25.470Z,1026.1855873131321
2024-04-10T08:16:47.003Z,1026.2212293494424
2024-04-10T08:20:11.424Z,1026.2321304723362
2024-04-10T08:23:44.562Z,1026.2518622514765
2024-04-10T08:27:08.373Z,1026.2664079749864
2024-04-10T08:30:34.577Z,1026.3354615974704
2024-04-10T08:34:04.490Z,1026.3575488789659
2024-04-10T08:37:30.752Z,1026.473282693765
2024-04-10T08:40:56.856Z,1026.5547273693544
2024-04-10T08:47:27.724Z,1026.6542482199106
2024-04-10T08:53:54.384Z,1026.725878064522
2024-04-10T08:57:21.207Z,1026.7838283400527
2024-04-10T09:00:47.118Z,1026.8029802476083
2024-04-10T09:04:09.903Z,1026.8165412895523
2024-04-10T09:07:35.086Z,1026.8383107239686
2024-04-10T09:10:59.418Z,1026.8878099790852
2024-04-10T09:16:30.495Z,1027.000985736559
2024-04-10T09:19:53.064Z,1027.0460420539425
2024-04-10T09:23:15.253Z,1027.0633659343
2024-04-10T09:26:39.226Z,1027.1177506777367
2024-04-10T09:30:07.500Z,1027.163190850667
2024-04-10T09:33:30.840Z,1027.2163901881297
2024-04-10T09:36:54.386Z,1027.2784780643997
2024-04-10T09:49:09.277Z,1027.403451771122
2024-04-10T09:52:35.602Z,1027.4113102956514
2024-04-10T09:56:00.203Z,1027.4371277044806
2024-04-10T09:59:23.971Z,1027.413337284301
2024-04-10T10:02:48.677Z,1027.431166956975
2024-04-10T10:06:10.378Z,1027.4236400491611
2024-04-10T10:09:36.648Z,1027.392117713211
2024-04-10T10:12:59.537Z,1027.4642178197744
2024-04-10T10:16:23.426Z,1027.473350302196
2024-04-10T10:23:12.933Z,1027.53073618827
2024-04-10T10:26:39.426Z,1027.562530439287
2024-04-10T10:32:51.216Z,1027.6165759262356
2024-04-10T10:36:21.267Z,1027.63391859815
2024-04-10T10:39:45.984Z,1027.669326220163
2024-04-10T10:43:11.665Z,1027.6707863587278
2024-04-10T10:46:34.884Z,1027.6806626069115
2024-04-10T10:50:04.789Z,1027.7129426544582
2024-04-10T10:53:35.363Z,1027.683195846989
2024-04-10T10:57:02.783Z,1027.699184278393
2024-04-10T11:00:34.081Z,1027.7789663862802
2024-04-10T11:04:06.194Z,1027.798077719116
2024-04-10T11:07:27.688Z,1027.8043111268737
2024-04-10T11:10:48.887Z,1027.862400599047
2024-04-10T11:16:19.052Z,1027.8855660850288
2024-04-10T11:19:51.012Z,1027.8277487795926
2024-04-10T11:23:15.354Z,1027.7837032751816
2024-04-10T11:29:28.749Z,1027.8521777279927
2024-04-10T11:32:54.229Z,1027.8664339821457
2024-04-10T11:36:25.716Z,1027.8329291793457
2024-04-10T11:39:51.114Z,1027.8007885097857
2024-04-10T11:43:21.323Z,1027.7801469129997
2024-04-10T11:46:49.747Z,1027.810024601331
2024-04-10T11:54:44.161Z,1027.8230796803052
2024-04-10T11:58:10.682Z,1027.7771457030374
2024-04-10T12:01:35.739Z,1027.7780482002395
2024-04-10T12:05:11.554Z,1027.8663130701548
2024-04-10T12:08:42.683Z,1027.8962800770735
2024-04-10T12:12:15.758Z,1027.9031189168725
2024-04-10T12:15:48.778Z,1027.9538808568748
2024-04-10T12:19:29.037Z,1028.0112473258255
2024-04-10T12:23:10.577Z,1028.0315256008416
2024-04-10T12:26:52.557Z,1028.0804957200776
2024-04-10T12:33:56.826Z,1028.1896659703757
2024-04-10T12:37:31.951Z,1028.2411740719153
2024-04-10T12:41:10.927Z,1028.2889683157232
2024-04-10T12:44:51.067Z,1028.2864249434497
2024-04-10T12:48:57.805Z,1028.2748153224604
2024-04-10T12:52:41.240Z,1028.2879485104563
2024-04-10T12:56:18.131Z,1028.2957796368212
2024-04-10T12:59:53.125Z,1028.324339225937
2024-04-10T13:03:26.177Z,1028.3656885351747
2024-04-10T13:06:55.614Z,1028.4044365687278
2024-04-10T13:11:02.184Z,1028.4402034874809
2024-04-10T13:14:36.397Z,1028.4156535880354
2024-04-10T13:18:06.495Z,1028.437360986436
2024-04-10T13:21:33.367Z,1028.4789343486527
2024-04-10T13:25:10.344Z,1028.4854234389593
2024-04-10T13:28:49.551Z,1028.568645109527
2024-04-10T13:32:21.273Z,1028.5642614535814
2024-04-10T13:35:49.170Z,1028.5416596587959
2024-04-10T13:39:18.180Z,1028.5392980138747
2024-04-10T13:42:48.335Z,1028.539524414192
2024-04-10T13:46:17.197Z,1028.5289363938896
2024-04-10T13:49:40.792Z,1028.5490089595655
2024-04-10T13:53:05.107Z,1028.5590886745838
2024-04-10T13:57:15.244Z,1028.5994405875272
2024-04-10T14:00:42.339Z,1028.5677164259478
2024-04-10T14:07:13.666Z,1028.508671865475
2024-04-10T14:10:56.636Z,1028.4961467385365
2024-04-10T14:14:39.068Z,1028.5300039036288
2024-04-10T14:18:05.287Z,1028.6340180349353
2024-04-10T14:21:34.013Z,1028.7047864642616
2024-04-10T14:25:06.298Z,1028.7705369293192
2024-04-10T14:28:40.950Z,1028.823779139929
2024-04-10T14:32:10.047Z,1028.847953144206
2024-04-10T14:35:40.460Z,1028.858596237815
2024-04-10T14:39:14.483Z,1028.8361988499664
2024-04-10T14:42:50.752Z,1028.8099672531182
2024-04-10T14:48:45.934Z,1028.8089708073583
2024-04-10T14:52:10.281Z,1028.7951461077655
2024-04-10T14:56:10.228Z,1028.8242896624477
2024-04-10T14:59:45.098Z,1028.8132110793215
2024-04-10T15:03:15.996Z,1028.8235219568576
2024-04-10T15:06:43.526Z,1028.781652039386
2024-04-10T15:10:12.169Z,1028.7949089256385
2024-04-10T15:16:01.143Z,1028.8381394208193
2024-04-10T15:22:37.136Z,1028.837976485303
2024-04-10T15:26:01.200Z,1028.8166424325536
2024-04-10T15:29:25.494Z,1028.7639447346037
2024-04-10T15:32:52.970Z,1028.7138347768466
2024-04-10T15:36:27.082Z,1028.6767864822816
2024-04-10T15:41:07.776Z,1028.6968947362989
2024-04-10T15:46:11.165Z,1028.7608446635884
2024-04-10T15:49:34.892Z,1028.7630614240404
2024-04-10T15:52:56.049Z,1028.7440356374825
2024-04-10T15:56:20.237Z,1028.818330136689
2024-04-10T15:59:42.509Z,1028.833131849046
2024-04-10T16:03:06.201Z,1028.8565052001704
2024-04-10T16:06:33.935Z,1028.8830318872497
2024-04-10T16:10:02.636Z,1028.8941946242212
2024-04-10T16:13:31.994Z,1028.9115828727904
2024-04-10T16:17:08.217Z,1028.9328812877052
2024-04-10T16:22:49.621Z,1028.9686074800115
2024-04-10T16:26:12.678Z,1028.9504361540164
2024-04-10T16:29:42.628Z,1028.970321457917
2024-04-10T16:33:08.257Z,1029.0056688360378
2024-04-10T16:36:37.002Z,1029.0170252545427
2024-04-10T16:40:01.240Z,1029.0232210375775
2024-04-10T16:45:03.733Z,1029.016179112732
2024-04-10T16:48:33.520Z,1029.0008402790859
2024-04-10T16:52:12.473Z,1028.9950750336434
2024-04-10T16:55:40.068Z,1029.0303962835605
2024-04-10T17:01:48.135Z,1029.0762665113982
2024-04-10T17:05:17.097Z,1029.1100411000484
2024-04-10T17:08:40.512Z,1029.139116418086
2024-04-10T17:12:05.502Z,1029.2236151012737
2024-04-10T17:15:32.685Z,1029.1689898795983
2024-04-10T17:19:04.433Z,1029.1255938864135
2024-04-10T17:22:27.670Z,1029.1909128862621
2024-04-10T17:25:50.366Z,1029.2476255839854
2024-04-10T17:29:21.615Z,1029.305905027509
2024-04-10T17:32:46.102Z,1029.3500507167603
2024-04-10T17:36:08.768Z,1029.3557499645915
2024-04-10T17:48:07.941Z,1029.3639161595881
2024-04-10T18:00:08.097Z,1029.438911463385
2024-04-10T18:05:20.682Z,1029.4966237045894
2024-04-10T18:08:43.794Z,1029.55192748935
2024-04-10T18:12:07.671Z,1029.5421268714206
2024-04-10T18:15:31.919Z,1029.5362948267539
2024-04-10T18:19:02.276Z,1029.600493252038
2024-04-10T18:22:29.146Z,1029.67230851843
2024-04-10T18:25:54.975Z,1029.7020570753116
2024-04-10T18:31:54.590Z,1029.7260435558737
2024-04-10T18:35:21.894Z,1029.7064507181597
2024-04-10T18:38:48.014Z,1029.6855930334748
2024-04-10T18:42:12.448Z,1029.7404650517308
2024-04-10T18:45:38.360Z,1029.7729517994503
2024-04-10T18:49:04.747Z,1029.8304863258368
2024-04-10T18:53:51.847Z,1029.879713593435
2024-04-10T18:57:16.897Z,1029.8987969015704
2024-04-10T19:00:44.445Z,1029.9306422149248
2024-04-10T19:04:07.405Z,1029.9618812529918
2024-04-10T19:08:00.534Z,1029.9985152134755
2024-04-10T19:11:24.454Z,1029.9883082148613
2024-04-10T19:14:48.231Z,1029.978838597229
2024-04-10T19:18:12.600Z,1029.9738107414169
2024-04-10T19:21:36.919Z,1030.003254473992
2024-04-10T19:24:59.527Z,1030.04026705053
2024-04-10T19:28:23.304Z,1030.0601380614833
2024-04-10T19:31:52.340Z,1030.0490496971588
2024-04-10T19:35:19.509Z,1030.0432567140097
2024-04-10T19:38:44.618Z,1030.074552609527
2024-04-10T19:42:09.680Z,1030.1181768370902
2024-04-10T19:45:32.547Z,1030.1325538450385
2024-04-10T19:48:57.434Z,1030.115530629182
2024-04-10T19:56:39.776Z,1030.02223507386
2024-04-10T20:01:08.245Z,1029.9870964214047
2024-04-10T20:04:32.458Z,1029.9437902085822
2024-04-10T20:07:57.041Z,1029.927921335592
2024-04-10T20:11:26.026Z,1029.894571539346
2024-04-10T20:14:55.296Z,1029.862323552749
2024-04-10T20:18:19.584Z,1029.8255655564415
2024-04-10T20:25:30.944Z,1029.7848783622765
2024-04-10T20:28:53.205Z,1029.8007098802686
2024-04-10T20:32:16.386Z,1029.8086716335024
2024-04-10T20:35:39.302Z,1029.842810053187
2024-04-10T20:39:02.307Z,1029.8300094368874
2024-04-10T20:42:29.442Z,1029.8199956067463
2024-04-10T20:49:23.673Z,1029.8896302718947
2024-04-10T20:52:50.441Z,1029.9262057296191
2024-04-10T20:56:22.822Z,1029.913313155712
2024-04-10T21:08:23.087Z,1029.8667652998085
2024-04-10T21:11:48.022Z,1029.8281398527324
2024-04-10T21:15:11.822Z,1029.7928859632507
2024-04-10T21:18:37.291Z,1029.73915562376
2024-04-10T21:25:17.451Z,1029.7031161974867
2024-04-10T21:28:47.683Z,1029.7311429175768
2024-04-10T21:32:26.944Z,1029.7854706065632
2024-04-10T21:35:54.834Z,1029.8102136078826
2024-04-10T21:39:25.349Z,1029.8147477072907
2024-04-10T21:44:41.451Z,1029.8499137034553
2024-04-10T21:48:07.570Z,1029.9048460852318
2024-04-10T21:54:25.770Z,1029.8623166999728
2024-04-10T21:57:51.551Z,1029.8476676666578
2024-04-10T22:03:30.013Z,1029.8525471846883
2024-04-10T22:09:51.456Z,1029.9354406104233
2024-04-10T22:13:14.492Z,1029.9167970832834
2024-04-10T22:16:46.955Z,1029.9077958651508
2024-04-10T22:20:18.227Z,1029.9581185295115
2024-04-10T22:23:46.576Z,1029.955592477106
2024-04-10T22:27:18.535Z,1029.909237207567
2024-04-10T22:30:45.476Z,1029.8586756142454
2024-04-10T22:34:15.030Z,1029.820034206158
2024-04-10T22:37:44.595Z,1029.8387922659467
2024-04-10T22:41:11.536Z,1029.8375870355972
2024-04-10T22:44:37.862Z,1029.791208658369
2024-04-10T22:48:01.234Z,1029.707945716047
2024-04-10T22:51:27.709Z,1029.7140359164844
2024-04-10T22:54:53.292Z,1029.7276979794397
2024-04-10T22:58:16.935Z,1029.7691543348417
2024-04-10T23:01:43.234Z,1029.7205978720426
2024-04-10T23:05:22.588Z,1029.6513515643628
2024-04-10T23:09:11.695Z,1029.620058334823
2024-04-10T23:12:36.036Z,1029.6271032022
2024-04-10T23:16:01.526Z,1029.6700200804016
2024-04-10T23:19:27.456Z,1029.6909624854318
2024-04-10T23:22:58.198Z,1029.709368008996
2024-04-10T23:26:26.527Z,1029.7738911292909
2024-04-10T23:30:04.316Z,1029.7383859618617
2024-04-10T23:33:33.428Z,1029.707537238342
2024-04-10T23:38:44.547Z,1029.5468713386902
2024-04-10T23:42:18.192Z,1029.5026647380687
2024-04-10T23:45:49.495Z,1029.4805749458214
2024-04-10T23:49:16.368Z,1029.4694950553537
2024-04-10T23:52:59.982Z,1029.3568978989144
2024-04-10T23:57:06.655Z,1029.304347953422
